Terminal Aerodrome Forecast
Issued by NWS

Home | Current Version | Previous Version | Text Only | Print | Product List | Glossary On
Versions: 1 2 3 4 5 6 7 8 9 10 11 12 13
000
FTAK31 PAJN 250500
TAFAKT
TAF
PAKT 250528Z 2506/2606 12004KT 6SM -SHRA BR FEW010 OVC035
      TEMPO 2506/2510 4SM -SHRA BR BKN008 OVC010
     FM251000 14004KT 4SM -SHRA SCT010 OVC015
     FM252000 14010G20KT 4SM -RA BR SCT009 OVC015
     FM260200 14008KT 4SM -RA BR SCT015 OVC025
      AMD LTD TO CLD VIS AND WIND 2506/2515=

USA.gov is the U.S. government's official web portal to all federal, state and local government web resources and services.